Capitol Logistics 922

Operating for DHL



EGPF
Glasgow International Airport
Glasgow, GB
EGNX
East Midlands Airport
Derby, GB

Activity Log

Date Flight Route Aircraft Duration
12/31/2021 CPX1001 NORB1H NORBO T256 ROVLA UT256 DCS UL612 CROFT ROKU1B A30F 0h 56m

Route Details

Aircraft Information
Group: European Fleet
Types: A30F,A31F,B738
Route Data
Demand: L
Distance: 213nm
Duration: 1h 14m
Recm'd Route: NORB1H NORBO T256 ROVLA UT256 DCS UL612 CROFT ROKU1B
Origin Wx: EGPF 272220Z AUTO 25007KT 9999 NCD 08/06 Q1027
Dest. Wx: EGNX 272220Z 31009KT CAVOK 09/06 Q1027
Notes:

Financial History
Total Freight: 29,077lbs
Average Load: 29,077lbs/flt
Fuel Used: 8,977lbs
Avg. Fuel Used: 8,977lbs/flt
Fuel Expense: $2,962
Avg. Fuel Expense: $2,962
Avg. Fuel Cost: $0.33/lbs
Total Gross Income: $60,015
Pilot Pay: $259
Total Expenses: $8,437
Total Revenue: $48,471
Average Revenue: $60,014.93